Time;durP1;ratioP1;P1;durP2;ratioP2;P2;SDS_P1;SDS_P2;PMS_P1;PMS_P2;Temp;Humidity;BMP_temperature;BMP_pressure;BME280_temperature;BME280_humidity;BME280_pressure;Samples;Min_cycle;Max_cycle;Signal;HPM_P1;HPM_P2
2023/06/09 00:02:06;;;;;;;9.68;4.97;;;18.80;77.20;;;;;;6241286;23;19997;-72
2023/06/09 00:04:33;;;;;;;10.40;4.70;;;18.70;77.40;;;;;;6240958;23;20005;-72
2023/06/09 00:07:01;;;;;;;6.38;3.42;;;18.70;77.60;;;;;;6241297;23;20011;-72
2023/06/09 00:09:28;;;;;;;10.55;4.05;;;18.60;77.70;;;;;;6240306;23;19996;-72
2023/06/09 00:11:53;;;;;;;11.60;5.60;;;18.60;77.80;;;;;;6241159;23;20012;-72
2023/06/09 00:14:19;;;;;;;9.50;4.07;;;18.60;77.90;;;;;;6241065;23;20734;-72
2023/06/09 00:16:47;;;;;;;11.80;5.50;;;18.50;77.90;;;;;;6241094;23;20050;-72
2023/06/09 00:19:14;;;;;;;9.32;3.75;;;18.50;78.10;;;;;;6240883;23;20008;-72
2023/06/09 00:21:39;;;;;;;7.32;4.07;;;18.50;78.20;;;;;;6241173;23;20011;-72
2023/06/09 00:24:05;;;;;;;5.20;3.65;;;18.50;78.40;;;;;;6240205;23;20326;-72
2023/06/09 00:26:31;;;;;;;9.88;3.90;;;18.40;78.50;;;;;;6214315;23;20402;-72
2023/06/09 00:28:56;;;;;;;8.27;3.88;;;18.40;78.70;;;;;;6240837;23;20031;-72
2023/06/09 00:31:22;;;;;;;14.48;4.88;;;18.40;78.90;;;;;;6240825;23;20059;-72
2023/06/09 00:33:48;;;;;;;9.93;4.18;;;18.30;79.20;;;;;;6240845;23;20000;-73
2023/06/09 00:36:14;;;;;;;7.78;3.85;;;18.30;79.20;;;;;;6213965;23;20065;-72
2023/06/09 00:38:39;;;;;;;10.68;4.07;;;18.30;79.20;;;;;;6240206;23;20452;-73
2023/06/09 00:41:05;;;;;;;8.18;4.07;;;18.20;79.20;;;;;;6241071;23;20004;-73
2023/06/09 00:43:30;;;;;;;12.02;4.90;;;18.20;79.40;;;;;;6213836;23;20008;-73
2023/06/09 00:45:56;;;;;;;13.00;4.57;;;18.20;79.50;;;;;;6241306;23;20329;-72
2023/06/09 00:48:22;;;;;;;14.18;4.88;;;18.10;79.70;;;;;;6240820;23;20397;-73
2023/06/09 00:50:48;;;;;;;11.63;4.28;;;18.10;79.90;;;;;;6240921;23;20003;-73
2023/06/09 00:53:15;;;;;;;8.38;3.67;;;18.10;79.80;;;;;;6241999;23;20047;-72
2023/06/09 00:55:41;;;;;;;11.35;5.07;;;18.10;79.90;;;;;;6242857;23;20000;-72
2023/06/09 00:58:08;;;;;;;11.73;4.22;;;18.00;79.90;;;;;;6242954;23;20012;-72
2023/06/09 01:00:35;;;;;;;9.55;4.15;;;18.00;80.20;;;;;;6242800;23;20307;-72
2023/06/09 01:03:01;;;;;;;12.05;4.63;;;18.00;80.20;;;;;;6215678;23;20023;-72
2023/06/09 01:05:32;;;;;;;8.25;4.43;;;18.00;80.40;;;;;;6242657;23;20034;-73
2023/06/09 01:08:08;;;;;;;8.07;4.03;;;18.00;80.50;;;;;;6215225;23;20001;-72
2023/06/09 01:10:42;;;;;;;6.97;3.80;;;18.00;80.60;;;;;;6242684;23;19996;-72
2023/06/09 01:13:42;;;;;;;8.38;4.28;;;18.10;80.60;;;;;;6242907;23;20019;-72
2023/06/09 01:16:15;;;;;;;10.48;4.63;;;18.10;80.70;;;;;;6242883;23;20022;-73
2023/06/09 01:18:42;;;;;;;9.95;4.90;;;18.10;80.80;;;;;;6242723;23;20066;-73
2023/06/09 01:21:44;;;;;;;11.20;4.95;;;18.00;80.80;;;;;;6242707;23;20066;-73
2023/06/09 01:24:30;;;;;;;15.23;5.20;;;18.00;81.00;;;;;;6090990;23;20078;-72
2023/06/09 01:27:01;;;;;;;8.35;3.63;;;18.00;81.20;;;;;;6090710;23;20095;-72
2023/06/09 01:29:30;;;;;;;9.82;4.53;;;17.90;81.20;;;;;;6090801;23;20002;-72
2023/06/09 01:31:57;;;;;;;11.48;4.15;;;17.90;81.50;;;;;;6090997;23;20177;-73
2023/06/09 01:34:23;;;;;;;10.93;5.22;;;17.90;81.70;;;;;;6090595;23;20018;-72
2023/06/09 01:36:51;;;;;;;11.02;4.80;;;17.80;81.80;;;;;;6090535;23;20006;-73
2023/06/09 01:39:17;;;;;;;9.95;5.07;;;17.80;81.90;;;;;;6090452;23;20440;-72
2023/06/09 01:41:44;;;;;;;8.73;3.65;;;17.70;82.10;;;;;;6090646;23;20077;-72
2023/06/09 01:44:10;;;;;;;10.70;4.22;;;17.70;82.30;;;;;;6090658;23;20014;-73
2023/06/09 01:46:36;;;;;;;9.27;4.55;;;17.60;82.50;;;;;;6090784;23;20006;-72
2023/06/09 01:49:26;;;;;;;10.27;5.25;;;17.60;82.80;;;;;;6090928;23;20002;-72
2023/06/09 01:52:21;;;;;;;11.35;4.90;;;17.60;83.10;;;;;;6090348;23;20025;-72
2023/06/09 01:54:53;;;;;;;10.52;4.32;;;17.50;83.10;;;;;;6086355;23;20006;-72
2023/06/09 01:57:30;;;;;;;8.75;4.43;;;17.50;83.30;;;;;;6117122;23;20031;-72
2023/06/09 02:00:04;;;;;;;7.85;4.80;;;17.40;83.40;;;;;;6242010;23;20118;-72
2023/06/09 02:02:33;;;;;;;11.75;4.88;;;17.40;83.60;;;;;;6242385;23;20389;-72
2023/06/09 02:05:00;;;;;;;10.93;4.40;;;17.40;83.80;;;;;;6241803;23;20040;-72
2023/06/09 02:07:27;;;;;;;10.82;4.60;;;17.40;84.20;;;;;;6241688;23;20004;-72
2023/06/09 02:09:54;;;;;;;9.38;5.00;;;17.30;84.30;;;;;;6242139;23;20000;-72
2023/06/09 02:12:19;;;;;;;12.85;4.68;;;17.30;84.40;;;;;;6242067;23;20000;-72
2023/06/09 02:14:45;;;;;;;11.40;5.15;;;17.30;84.40;;;;;;6241952;23;20011;-72
2023/06/09 02:17:12;;;;;;;11.05;4.43;;;17.30;84.60;;;;;;6242183;23;20001;-72
2023/06/09 02:19:38;;;;;;;11.80;5.00;;;17.20;84.70;;;;;;6214241;23;20299;-72
2023/06/09 02:22:05;;;;;;;7.03;4.00;;;17.20;84.90;;;;;;6242441;23;20027;-72
2023/06/09 02:24:31;;;;;;;12.57;3.92;;;17.20;85.00;;;;;;6241906;23;20012;-71
2023/06/09 02:26:57;;;;;;;11.20;4.93;;;17.10;85.00;;;;;;6241786;23;20454;-72
2023/06/09 02:29:25;;;;;;;8.82;4.65;;;17.10;85.10;;;;;;6241809;23;20075;-72
2023/06/09 02:31:57;;;;;;;8.18;5.90;;;17.10;85.10;;;;;;6242312;23;20043;-72
2023/06/09 02:34:23;;;;;;;8.38;3.92;;;17.10;85.30;;;;;;6241101;23;20008;-72
2023/06/09 02:36:52;;;;;;;17.80;5.55;;;17.00;85.30;;;;;;6241969;23;20065;-72
2023/06/09 02:39:19;;;;;;;9.68;5.22;;;17.00;85.50;;;;;;6241657;23;19997;-72
2023/06/09 02:41:44;;;;;;;9.05;4.35;;;16.90;85.60;;;;;;6241846;23;20178;-72
2023/06/09 02:44:10;;;;;;;9.15;4.55;;;16.90;85.60;;;;;;6241789;23;20063;-72
2023/06/09 02:46:36;;;;;;;15.30;4.90;;;16.90;85.70;;;;;;6242152;23;19996;-72
2023/06/09 02:49:02;;;;;;;12.50;4.97;;;16.90;85.90;;;;;;6241482;23;20004;-72
2023/06/09 02:51:28;;;;;;;9.60;5.22;;;16.80;85.90;;;;;;6241436;23;20075;-72
2023/06/09 02:53:53;;;;;;;10.02;4.35;;;16.70;86.00;;;;;;6241787;23;20062;-72
2023/06/09 02:56:19;;;;;;;12.13;5.32;;;16.70;86.10;;;;;;6241802;23;20012;-72
2023/06/09 02:58:46;;;;;;;13.70;5.50;;;16.70;86.30;;;;;;6241488;23;20213;-72
2023/06/09 03:01:12;;;;;;;15.60;6.32;;;16.60;86.30;;;;;;6241597;23;20006;-72
2023/06/09 03:03:38;;;;;;;12.35;4.88;;;16.60;86.50;;;;;;6239963;23;19996;-71
2023/06/09 03:06:07;;;;;;;12.73;4.95;;;16.60;86.70;;;;;;6240300;23;20008;-72
2023/06/09 03:08:33;;;;;;;13.88;5.38;;;16.60;86.80;;;;;;6241405;23;20067;-72
2023/06/09 03:10:58;;;;;;;14.02;4.78;;;16.50;86.90;;;;;;6241258;23;20023;-72
2023/06/09 03:13:24;;;;;;;11.70;5.13;;;16.50;87.00;;;;;;6240491;23;20019;-72
2023/06/09 03:15:50;;;;;;;9.50;4.93;;;16.50;87.10;;;;;;6241066;23;20138;-72
2023/06/09 03:18:16;;;;;;;10.63;4.35;;;16.40;87.20;;;;;;6241037;23;19997;-72
2023/06/09 03:20:42;;;;;;;13.75;5.38;;;16.40;87.30;;;;;;6241599;23;20011;-72
2023/06/09 03:23:08;;;;;;;11.15;5.05;;;16.40;87.40;;;;;;6214851;23;20004;-72
2023/06/09 03:25:34;;;;;;;11.57;5.03;;;16.40;87.60;;;;;;6214795;23;20325;-72
2023/06/09 03:28:00;;;;;;;12.18;4.85;;;16.30;87.70;;;;;;6214581;23;20047;-72
2023/06/09 03:30:26;;;;;;;17.92;5.90;;;16.30;87.80;;;;;;6241603;23;20004;-71
2023/06/09 03:32:51;;;;;;;14.23;5.07;;;16.30;88.60;;;;;;6214346;23;20004;-72
2023/06/09 03:35:17;;;;;;;13.20;6.00;;;16.20;88.20;;;;;;6214654;23;20008;-72
2023/06/09 03:37:43;;;;;;;14.27;6.32;;;16.20;88.40;;;;;;6241413;23;20007;-72
2023/06/09 03:40:10;;;;;;;9.88;4.38;;;16.20;88.50;;;;;;6241715;23;20000;-72
2023/06/09 03:42:36;;;;;;;12.30;5.20;;;16.10;88.70;;;;;;6241690;23;20503;-72
2023/06/09 03:45:02;;;;;;;9.68;4.63;;;16.10;88.60;;;;;;6215015;23;20111;-72
2023/06/09 03:47:27;;;;;;;12.60;5.40;;;16.10;88.70;;;;;;6240914;23;20055;-72
2023/06/09 03:49:54;;;;;;;9.95;4.35;;;16.10;88.80;;;;;;6241478;23;20440;-72
2023/06/09 03:52:21;;;;;;;9.45;5.07;;;16.10;88.90;;;;;;6241557;23;20448;-72
2023/06/09 03:54:47;;;;;;;9.48;5.53;;;16.20;89.00;;;;;;6241424;23;20027;-72
2023/06/09 03:57:13;;;;;;;14.85;5.38;;;16.10;89.10;;;;;;6241260;23;19997;-72
2023/06/09 03:59:38;;;;;;;11.57;5.78;;;16.10;89.10;;;;;;6214510;23;20119;-72
2023/06/09 04:02:04;;;;;;;13.52;5.90;;;16.10;89.20;;;;;;6240827;23;20012;-72
2023/06/09 04:04:29;;;;;;;13.88;5.07;;;16.10;89.30;;;;;;6241537;23;20023;-71
2023/06/09 04:06:56;;;;;;;15.45;5.70;;;16.10;89.30;;;;;;6241186;23;19996;-71
2023/06/09 04:09:22;;;;;;;13.82;6.15;;;16.20;89.50;;;;;;6241372;23;20005;-72
2023/06/09 04:11:47;;;;;;;14.93;5.88;;;16.20;89.50;;;;;;6241700;23;20071;-72
2023/06/09 04:14:13;;;;;;;14.07;6.35;;;16.20;89.60;;;;;;6241351;23;20071;-72
2023/06/09 04:16:38;;;;;;;12.27;5.38;;;16.20;89.60;;;;;;6240798;23;20373;-72
2023/06/09 04:19:04;;;;;;;12.20;5.30;;;16.20;89.70;;;;;;6241740;23;20087;-72
2023/06/09 04:21:30;;;;;;;13.48;5.43;;;16.20;89.70;;;;;;6241366;23;20443;-72
2023/06/09 04:23:56;;;;;;;9.38;4.93;;;16.30;89.90;;;;;;6241405;23;20770;-72
2023/06/09 04:26:21;;;;;;;12.85;5.40;;;16.30;89.90;;;;;;6241322;23;20142;-72
2023/06/09 04:28:47;;;;;;;12.20;5.18;;;16.30;89.90;;;;;;6243127;23;20027;-72
2023/06/09 04:31:13;;;;;;;14.23;6.00;;;16.40;90.00;;;;;;6242563;23;19996;-72
2023/06/09 04:33:39;;;;;;;12.20;6.40;;;16.40;90.00;;;;;;6243268;23;20077;-72
2023/06/09 04:36:05;;;;;;;16.35;6.03;;;16.50;90.00;;;;;;6243294;23;20063;-71
2023/06/09 04:38:35;;;;;;;13.48;6.18;;;16.40;90.20;;;;;;6243331;23;20000;-71
2023/06/09 04:41:03;;;;;;;9.32;5.43;;;16.50;90.30;;;;;;6243260;23;20008;-71
2023/06/09 04:43:32;;;;;;;11.35;6.57;;;16.50;90.40;;;;;;6243016;23;20010;-71
2023/06/09 04:45:59;;;;;;;13.13;5.97;;;16.40;90.50;;;;;;6242675;23;20454;-71
2023/06/09 04:48:25;;;;;;;10.25;5.90;;;16.50;90.50;;;;;;6242665;23;19996;-71
2023/06/09 04:50:51;;;;;;;12.30;6.28;;;16.50;90.70;;;;;;6216122;23;20026;-71
2023/06/09 04:53:19;;;;;;;13.93;6.07;;;16.50;90.70;;;;;;6243152;23;20387;-71
2023/06/09 04:55:45;;;;;;;18.75;6.47;;;16.60;90.90;;;;;;6243199;23;20095;-71
2023/06/09 04:58:11;;;;;;;14.02;5.60;;;16.60;90.90;;;;;;6243103;23;20434;-71
2023/06/09 05:00:37;;;;;;;14.90;6.07;;;16.60;90.90;;;;;;6215384;23;20031;-71
2023/06/09 05:03:03;;;;;;;13.93;7.30;;;16.60;90.90;;;;;;6216397;23;20430;-71
2023/06/09 05:05:28;;;;;;;11.15;6.22;;;16.70;91.00;;;;;;6242922;23;20501;-71
2023/06/09 05:07:54;;;;;;;16.65;7.60;;;16.80;91.00;;;;;;6216063;23;20067;-71
2023/06/09 05:10:22;;;;;;;28.00;7.40;;;16.80;91.00;;;;;;6242959;23;19996;-71
2023/06/09 05:12:49;;;;;;;15.02;6.97;;;16.90;91.00;;;;;;6215811;23;20063;-71
2023/06/09 05:15:15;;;;;;;17.48;7.47;;;16.90;90.90;;;;;;6242289;23;20430;-71
2023/06/09 05:17:44;;;;;;;16.48;6.95;;;16.90;90.90;;;;;;6215946;23;20008;-71
2023/06/09 05:20:10;;;;;;;17.55;6.45;;;16.90;90.90;;;;;;6242984;23;19997;-72
2023/06/09 05:22:36;;;;;;;16.63;7.32;;;16.90;91.00;;;;;;6215848;23;20371;-71
2023/06/09 05:25:03;;;;;;;15.68;6.97;;;16.90;90.90;;;;;;6242193;23;20337;-72
2023/06/09 05:27:29;;;;;;;15.90;7.93;;;16.90;91.30;;;;;;6242154;23;20380;-71
2023/06/09 05:29:55;;;;;;;12.13;6.70;;;16.90;91.00;;;;;;6215222;23;20000;-72
2023/06/09 05:32:21;;;;;;;14.15;6.97;;;17.00;91.00;;;;;;6242480;23;20066;-71
2023/06/09 05:34:47;;;;;;;14.45;6.97;;;17.00;91.10;;;;;;6242695;23;20078;-71
2023/06/09 05:37:17;;;;;;;14.38;7.05;;;17.00;91.00;;;;;;6215694;23;20421;-72
2023/06/09 05:39:42;;;;;;;20.05;7.05;;;17.00;91.00;;;;;;6242002;23;20011;-71
2023/06/09 05:42:09;;;;;;;14.70;7.55;;;17.00;91.00;;;;;;6242922;23;20000;-71
2023/06/09 05:44:35;;;;;;;14.90;7.30;;;17.10;91.10;;;;;;6242118;23;20031;-71
2023/06/09 05:47:00;;;;;;;11.10;7.35;;;17.10;91.00;;;;;;6242400;23;20426;-71
2023/06/09 05:49:26;;;;;;;13.82;7.82;;;17.10;91.00;;;;;;6242453;23;20329;-71
2023/06/09 05:51:51;;;;;;;14.13;6.72;;;17.20;91.10;;;;;;6242525;23;20058;-72
2023/06/09 05:54:18;;;;;;;17.35;8.68;;;17.30;91.10;;;;;;6242249;23;20075;-71
2023/06/09 05:56:44;;;;;;;14.27;7.80;;;17.40;91.10;;;;;;6241782;23;19996;-71
2023/06/09 05:59:11;;;;;;;15.85;8.15;;;17.50;91.10;;;;;;6240270;23;20075;-71
2023/06/09 06:01:36;;;;;;;18.63;7.35;;;17.50;91.10;;;;;;6240666;23;20103;-71
2023/06/09 06:04:02;;;;;;;13.75;7.88;;;17.60;91.10;;;;;;6242188;23;20516;-72
2023/06/09 06:06:29;;;;;;;14.00;7.25;;;17.60;91.10;;;;;;6241980;23;20452;-72
2023/06/09 06:08:55;;;;;;;19.40;8.45;;;17.70;91.00;;;;;;6242534;23;20365;-72
2023/06/09 06:11:21;;;;;;;17.23;7.72;;;17.70;90.90;;;;;;6242161;23;20472;-71
2023/06/09 06:13:46;;;;;;;19.92;8.27;;;17.80;90.90;;;;;;6241726;23;20500;-71
2023/06/09 06:16:12;;;;;;;14.88;7.38;;;17.80;90.90;;;;;;6242217;23;20008;-71
2023/06/09 06:18:37;;;;;;;17.23;8.70;;;17.90;90.90;;;;;;6241368;23;20024;-72
2023/06/09 06:21:03;;;;;;;17.23;8.85;;;18.00;91.00;;;;;;6242308;23;20437;-71
2023/06/09 06:23:28;;;;;;;20.27;9.00;;;18.00;91.00;;;;;;6214589;23;20306;-71
2023/06/09 06:25:54;;;;;;;16.65;8.43;;;18.10;91.00;;;;;;6241904;23;20020;-72
2023/06/09 06:28:21;;;;;;;20.20;8.75;;;18.20;91.00;;;;;;6241363;23;20489;-73
2023/06/09 06:30:47;;;;;;;20.45;8.38;;;18.20;90.90;;;;;;6241889;23;20063;-74
2023/06/09 06:33:13;;;;;;;13.32;8.55;;;18.30;90.90;;;;;;6240938;23;19996;-75
2023/06/09 06:35:39;;;;;;;15.90;8.95;;;18.40;90.90;;;;;;6214513;23;20012;-74
2023/06/09 06:38:05;;;;;;;17.27;9.65;;;18.50;90.90;;;;;;6241838;23;20085;-75
2023/06/09 06:40:31;;;;;;;12.73;8.55;;;18.60;90.70;;;;;;6214731;23;20008;-74
2023/06/09 06:42:56;;;;;;;12.07;8.30;;;18.60;90.60;;;;;;6240888;23;20015;-74
2023/06/09 06:45:22;;;;;;;17.17;8.93;;;18.70;90.50;;;;;;6241053;23;20012;-75
2023/06/09 06:47:49;;;;;;;18.10;8.27;;;18.70;90.50;;;;;;6214465;23;20004;-75
2023/06/09 06:50:15;;;;;;;16.55;8.65;;;18.70;90.40;;;;;;6214224;23;20587;-74
2023/06/09 06:52:41;;;;;;;13.98;8.45;;;18.80;90.50;;;;;;6214640;23;20000;-74
2023/06/09 06:55:08;;;;;;;14.43;8.27;;;18.80;90.40;;;;;;6241057;23;20000;-75
2023/06/09 06:57:37;;;;;;;14.32;8.70;;;18.90;90.40;;;;;;6214241;23;20008;-74
2023/06/09 07:00:14;;;;;;;15.82;9.82;;;19.00;90.30;;;;;;6241505;23;20298;-74
2023/06/09 07:02:41;;;;;;;17.98;9.98;;;19.00;90.20;;;;;;6241492;23;19997;-75
2023/06/09 07:05:08;;;;;;;15.15;8.82;;;19.10;90.30;;;;;;6241376;23;20187;-74
2023/06/09 07:07:33;;;;;;;16.85;9.05;;;19.20;90.30;;;;;;6241563;23;19993;-75
2023/06/09 07:09:59;;;;;;;11.27;7.72;;;19.30;90.30;;;;;;6240616;23;20000;-74
2023/06/09 07:12:25;;;;;;;17.33;9.40;;;19.40;90.30;;;;;;6214209;23;20008;-74
2023/06/09 07:14:50;;;;;;;12.68;10.15;;;19.50;90.30;;;;;;6214151;23;20422;-74
2023/06/09 07:17:16;;;;;;;19.10;9.40;;;19.60;90.20;;;;;;6241142;23;20004;-74
2023/06/09 07:19:41;;;;;;;17.35;9.77;;;19.70;90.10;;;;;;6240990;23;20027;-74
2023/06/09 07:22:08;;;;;;;16.98;9.55;;;19.80;90.10;;;;;;6214397;23;20102;-74
2023/06/09 07:24:34;;;;;;;18.83;9.32;;;19.90;90.00;;;;;;6213510;23;20014;-75
2023/06/09 07:26:59;;;;;;;16.42;9.23;;;20.00;89.80;;;;;;6213735;23;20004;-74
2023/06/09 07:29:25;;;;;;;13.52;8.43;;;20.00;89.70;;;;;;6240958;23;20325;-74
2023/06/09 07:31:52;;;;;;;14.20;8.88;;;20.20;89.70;;;;;;6241156;23;19996;-74
2023/06/09 07:34:18;;;;;;;14.20;9.40;;;20.30;89.30;;;;;;6214187;23;20134;-74
2023/06/09 07:36:48;;;;;;;13.57;8.43;;;20.40;89.00;;;;;;6241167;23;20095;-74
2023/06/09 07:39:14;;;;;;;15.10;9.68;;;20.50;88.90;;;;;;6240469;23;20433;-74
2023/06/09 07:41:39;;;;;;;12.15;8.27;;;20.50;88.80;;;;;;6213906;23;19996;-74
2023/06/09 07:44:06;;;;;;;12.43;8.43;;;20.70;88.80;;;;;;6241139;23;20076;-75
2023/06/09 07:46:31;;;;;;;16.45;10.25;;;20.80;88.30;;;;;;6240566;23;20062;-74
2023/06/09 07:48:57;;;;;;;16.05;10.07;;;21.00;87.60;;;;;;6241410;23;19996;-74
2023/06/09 07:51:22;;;;;;;14.68;9.65;;;21.00;87.20;;;;;;6241425;23;20035;-73
2023/06/09 07:53:48;;;;;;;20.30;10.60;;;21.10;86.70;;;;;;6213950;23;20105;-74
2023/06/09 07:56:13;;;;;;;14.85;8.85;;;21.20;86.40;;;;;;6213456;23;20035;-74
2023/06/09 07:58:40;;;;;;;14.23;9.60;;;21.30;86.10;;;;;;6213304;23;20091;-74
2023/06/09 08:01:05;;;;;;;18.60;9.85;;;21.30;85.90;;;;;;6241343;23;20031;-73
2023/06/09 08:03:34;;;;;;;11.85;8.35;;;21.50;85.70;;;;;;6216579;23;20000;-74
2023/06/09 08:06:01;;;;;;;10.10;8.70;;;21.50;85.50;;;;;;6242847;23;20065;-75
2023/06/09 08:08:31;;;;;;;11.77;8.77;;;21.70;85.30;;;;;;6216440;23;20035;-75
2023/06/09 08:10:57;;;;;;;13.13;9.30;;;21.80;85.40;;;;;;6243784;23;20023;-75
2023/06/09 08:13:23;;;;;;;15.32;9.57;;;22.00;85.30;;;;;;6242464;23;20031;-75
2023/06/09 08:15:49;;;;;;;14.85;9.73;;;22.00;85.10;;;;;;6215488;23;20008;-74
2023/06/09 08:18:15;;;;;;;14.68;8.77;;;22.20;84.70;;;;;;6215760;23;20497;-75
2023/06/09 08:20:41;;;;;;;11.35;8.73;;;22.30;84.20;;;;;;6242901;23;20008;-75
2023/06/09 08:23:07;;;;;;;12.75;9.65;;;22.40;84.00;;;;;;6215636;23;20311;-74
2023/06/09 08:25:34;;;;;;;12.32;8.45;;;22.40;84.20;;;;;;6242878;23;20039;-74
2023/06/09 08:28:00;;;;;;;13.93;9.18;;;22.50;83.90;;;;;;6242456;23;20016;-74
2023/06/09 08:30:26;;;;;;;10.93;8.40;;;22.60;83.60;;;;;;6242446;23;19996;-74
2023/06/09 08:32:51;;;;;;;18.20;9.70;;;22.70;83.70;;;;;;6242791;23;20007;-74
2023/06/09 08:35:17;;;;;;;13.70;9.80;;;22.80;83.60;;;;;;6242556;23;20429;-74
2023/06/09 08:37:44;;;;;;;14.20;10.63;;;22.90;83.50;;;;;;6242256;23;20050;-74
2023/06/09 08:40:10;;;;;;;14.90;9.70;;;22.90;83.20;;;;;;6242914;23;20019;-74
2023/06/09 08:42:37;;;;;;;15.43;11.05;;;23.10;83.50;;;;;;6242737;23;20422;-74
2023/06/09 08:45:04;;;;;;;14.48;10.00;;;23.20;83.20;;;;;;6242624;23;20303;-74
2023/06/09 08:47:32;;;;;;;14.10;8.93;;;23.30;82.70;;;;;;6215880;23;20414;-74
2023/06/09 08:49:59;;;;;;;15.70;10.40;;;23.40;82.70;;;;;;6215435;23;20004;-74
2023/06/09 08:52:25;;;;;;;18.63;9.82;;;23.50;82.60;;;;;;6242034;23;20001;-74
2023/06/09 08:54:52;;;;;;;12.80;9.57;;;23.60;82.20;;;;;;6242577;23;20016;-74
2023/06/09 08:57:18;;;;;;;14.40;8.63;;;23.70;81.70;;;;;;6242472;23;20013;-74
2023/06/09 08:59:46;;;;;;;15.38;10.25;;;23.80;81.80;;;;;;6242327;23;20000;-75
2023/06/09 09:02:12;;;;;;;9.93;8.63;;;23.80;81.50;;;;;;6215402;23;20406;-74
2023/06/09 09:04:38;;;;;;;11.60;8.48;;;23.90;81.40;;;;;;6242420;23;20311;-74
2023/06/09 09:07:09;;;;;;;15.80;10.27;;;24.00;81.70;;;;;;6242114;23;20055;-74
2023/06/09 09:09:35;;;;;;;11.73;8.93;;;24.10;81.10;;;;;;6242685;23;20000;-74
2023/06/09 09:12:04;;;;;;;15.43;8.88;;;24.20;81.20;;;;;;6215893;23;20039;-74
2023/06/09 09:14:30;;;;;;;11.95;8.43;;;24.30;81.00;;;;;;6215522;23;20004;-75
2023/06/09 09:16:55;;;;;;;14.65;9.27;;;24.40;81.00;;;;;;6242311;23;20330;-75
2023/06/09 09:19:30;;;;;;;10.40;8.77;;;24.50;80.70;;;;;;6242300;23;20019;-75
2023/06/09 09:22:05;;;;;;;12.73;10.07;;;24.60;80.10;;;;;;6240549;23;20039;-75
2023/06/09 09:24:31;;;;;;;11.50;9.20;;;24.70;79.50;;;;;;6242346;23;20082;-75
2023/06/09 09:26:57;;;;;;;12.95;9.27;;;24.70;79.10;;;;;;6242073;23;20031;-74
2023/06/09 09:29:26;;;;;;;11.88;9.20;;;24.80;78.90;;;;;;6242194;23;20430;-75
2023/06/09 09:31:59;;;;;;;14.38;9.88;;;24.80;78.70;;;;;;6242480;23;20311;-75
2023/06/09 09:34:26;;;;;;;13.97;9.57;;;24.90;78.80;;;;;;6215482;23;20008;-75
2023/06/09 09:36:55;;;;;;;10.63;9.45;;;25.00;79.00;;;;;;6241921;23;19997;-75
2023/06/09 09:39:24;;;;;;;33.35;14.55;;;25.00;78.50;;;;;;6215252;23;20007;-77
2023/06/09 09:42:03;;;;;;;15.95;11.43;;;25.10;78.30;;;;;;6242257;23;19999;-75
2023/06/09 09:44:39;;;;;;;15.82;10.63;;;25.20;78.30;;;;;;6241878;23;20500;-75
2023/06/09 09:47:10;;;;;;;12.93;10.20;;;25.30;77.90;;;;;;6242184;23;19997;-75
2023/06/09 09:49:36;;;;;;;13.75;9.95;;;25.20;77.90;;;;;;6241541;23;20414;-75
2023/06/09 09:52:05;;;;;;;12.25;9.30;;;25.20;78.00;;;;;;6241409;23;20004;-76
2023/06/09 09:54:31;;;;;;;11.85;8.93;;;25.30;77.70;;;;;;6242005;23;20348;-75
2023/06/09 09:56:58;;;;;;;18.13;11.15;;;25.30;77.70;;;;;;6214961;23;20020;-75
2023/06/09 09:59:25;;;;;;;10.68;8.77;;;25.40;76.90;;;;;;6214225;23;20087;-75
2023/06/09 10:01:54;;;;;;;14.88;10.05;;;25.50;77.00;;;;;;6214781;23;20011;-75
2023/06/09 10:04:23;;;;;;;13.18;8.75;;;25.50;77.30;;;;;;6213482;23;20011;-75
2023/06/09 10:06:53;;;;;;;12.75;8.27;;;25.60;76.80;;;;;;6241701;23;20465;-75
2023/06/09 10:09:24;;;;;;;12.65;9.13;;;25.70;76.70;;;;;;6212088;23;20430;-75
2023/06/09 10:11:52;;;;;;;10.88;8.60;;;25.70;75.70;;;;;;6240286;23;20077;-74
2023/06/09 10:14:20;;;;;;;12.40;9.35;;;25.80;75.50;;;;;;6239996;23;20003;-74
2023/06/09 10:16:46;;;;;;;11.30;8.88;;;25.70;75.10;;;;;;6241442;23;20369;-74
2023/06/09 10:19:13;;;;;;;12.73;9.43;;;25.80;75.50;;;;;;6240199;23;20000;-74
2023/06/09 10:21:41;;;;;;;10.93;7.80;;;25.90;75.60;;;;;;6240760;23;20040;-75
2023/06/09 10:24:08;;;;;;;10.35;8.30;;;26.00;75.50;;;;;;6240735;23;20073;-74
2023/06/09 10:26:36;;;;;;;8.95;8.23;;;26.10;74.70;;;;;;6240685;23;20007;-74
2023/06/09 10:29:09;;;;;;;17.98;8.57;;;26.20;74.20;;;;;;6239196;23;20016;-74
2023/06/09 10:31:40;;;;;;;14.27;7.88;;;26.20;73.90;;;;;;6239122;23;20054;-74
2023/06/09 10:34:07;;;;;;;8.93;6.55;;;26.30;74.10;;;;;;6238703;23;20007;-74
2023/06/09 10:36:40;;;;;;;11.15;7.00;;;26.40;73.00;;;;;;6211869;23;20039;-74
2023/06/09 10:39:24;;;;;;;9.13;7.47;;;26.40;71.70;;;;;;6239572;23;20008;-74
2023/06/09 10:42:27;;;;;;;8.13;7.07;;;26.50;71.30;;;;;;6212637;23;20366;-73
2023/06/09 10:45:13;;;;;;;8.95;7.60;;;26.60;71.40;;;;;;6213702;23;20059;-73
2023/06/09 10:47:47;;;;;;;11.93;7.35;;;26.60;71.10;;;;;;6214195;23;20080;-73
2023/06/09 10:50:32;;;;;;;8.50;6.82;;;26.70;71.40;;;;;;6241236;23;20054;-72
2023/06/09 10:52:59;;;;;;;9.38;7.20;;;26.60;70.80;;;;;;6241187;23;20472;-74
2023/06/09 10:55:27;;;;;;;10.00;6.90;;;26.70;70.40;;;;;;6241297;23;20087;-73
2023/06/09 10:57:56;;;;;;;8.02;7.28;;;26.70;69.90;;;;;;6241329;23;20004;-74
2023/06/09 11:00:22;;;;;;;9.30;7.18;;;26.80;69.20;;;;;;6241379;23;20499;-74
2023/06/09 11:02:49;;;;;;;7.32;6.57;;;26.80;69.30;;;;;;6240768;23;20012;-74
2023/06/09 11:05:16;;;;;;;8.27;6.63;;;26.90;69.10;;;;;;6213442;23;20000;-74
2023/06/09 11:07:47;;;;;;;7.45;6.85;;;26.90;68.60;;;;;;6241033;23;20010;-74
2023/06/09 11:10:13;;;;;;;6.90;6.32;;;26.90;69.00;;;;;;6240716;23;20011;-74
2023/06/09 11:12:38;;;;;;;10.05;6.20;;;26.90;68.70;;;;;;6240129;23;20004;-74
2023/06/09 11:15:09;;;;;;;10.85;6.78;;;27.00;68.30;;;;;;6214629;23;20007;-74
2023/06/09 11:17:46;;;;;;;8.10;5.80;;;27.00;68.00;;;;;;6214228;23;20008;-74
2023/06/09 11:20:23;;;;;;;8.77;6.00;;;27.00;67.90;;;;;;6241861;23;20008;-74
2023/06/09 11:22:48;;;;;;;8.05;5.88;;;27.10;66.70;;;;;;6241272;23;20034;-74
2023/06/09 11:25:17;;;;;;;7.30;6.10;;;27.10;66.90;;;;;;6240644;23;20000;-74
2023/06/09 11:27:44;;;;;;;7.10;6.38;;;27.10;67.20;;;;;;6240911;23;20107;-74
2023/06/09 11:30:20;;;;;;;6.63;5.97;;;27.10;66.60;;;;;;6241326;23;20007;-74
2023/06/09 11:32:52;;;;;;;9.52;6.25;;;27.10;66.50;;;;;;6240259;23;20058;-74
2023/06/09 11:35:30;;;;;;;7.20;5.30;;;27.20;66.90;;;;;;6242669;23;20052;-73
2023/06/09 11:37:56;;;;;;;7.88;5.88;;;27.30;67.10;;;;;;6214865;23;20004;-77
2023/06/09 11:40:23;;;;;;;6.97;6.28;;;27.40;66.60;;;;;;6242073;23;20004;-76
2023/06/09 11:42:49;;;;;;;11.52;6.70;;;27.50;66.70;;;;;;6214178;23;20030;-73
2023/06/09 11:45:15;;;;;;;7.95;5.72;;;27.50;67.00;;;;;;6213974;23;20008;-74
2023/06/09 11:47:42;;;;;;;7.80;6.90;;;27.60;66.40;;;;;;6214905;23;20000;-74
2023/06/09 11:50:11;;;;;;;7.10;5.78;;;27.60;67.90;;;;;;6214522;23;20000;-74
2023/06/09 11:52:38;;;;;;;6.80;6.07;;;27.50;66.20;;;;;;6241191;23;20075;-74
2023/06/09 11:55:05;;;;;;;6.43;5.82;;;27.40;66.90;;;;;;6241152;23;20075;-74
2023/06/09 11:57:32;;;;;;;9.82;6.20;;;27.50;66.70;;;;;;6240910;23;20000;-73
2023/06/09 11:59:58;;;;;;;9.13;5.80;;;27.50;66.40;;;;;;6240488;23;20001;-73
2023/06/09 12:02:26;;;;;;;7.80;5.80;;;27.60;66.20;;;;;;6240579;23;20000;-73
2023/06/09 12:04:52;;;;;;;6.40;4.70;;;27.60;65.60;;;;;;6240529;23;20393;-73
2023/06/09 12:07:18;;;;;;;8.68;5.18;;;27.70;65.50;;;;;;6240773;23;20000;-74
2023/06/09 12:09:53;;;;;;;5.88;5.15;;;27.80;64.50;;;;;;6240227;23;20046;-73
2023/06/09 12:12:18;;;;;;;6.35;5.18;;;27.70;64.40;;;;;;6240460;23;20004;-73
2023/06/09 12:14:44;;;;;;;7.97;6.63;;;27.90;63.90;;;;;;6240053;23;20015;-73
2023/06/09 12:17:10;;;;;;;8.80;5.28;;;27.90;63.80;;;;;;6214031;23;20058;-72
2023/06/09 12:19:35;;;;;;;5.78;5.20;;;28.00;64.60;;;;;;6214081;23;20442;-73
2023/06/09 12:22:01;;;;;;;6.72;5.63;;;28.10;63.90;;;;;;6240864;23;20460;-72
2023/06/09 12:24:27;;;;;;;5.35;4.57;;;28.20;62.20;;;;;;6240688;23;20000;-72
2023/06/09 12:26:52;;;;;;;21.50;8.95;;;28.30;61.90;;;;;;6240780;23;20015;-72
2023/06/09 12:29:25;;;;;;;6.63;5.03;;;28.20;61.90;;;;;;6239927;23;20020;-73
2023/06/09 12:31:51;;;;;;;6.72;5.78;;;28.20;61.40;;;;;;6240235;23;20032;-74
2023/06/09 12:34:28;;;;;;;5.72;5.03;;;28.20;60.50;;;;;;6240660;23;20320;-72
2023/06/09 12:36:55;;;;;;;6.70;4.82;;;28.20;61.20;;;;;;6214018;23;20321;-77
2023/06/09 12:39:23;;;;;;;5.32;4.90;;;28.20;61.50;;;;;;6240338;23;19996;-74
2023/06/09 12:41:49;;;;;;;8.90;4.72;;;28.20;61.00;;;;;;6240394;23;19992;-74